• Join FlightAware (Why Join?)
  • Login
  • US Flag 
10:37AM EDT


 

Airport Tracker/Info


-or-


 

Live Flight TrackerFlight Track Log ✈ BJS542 ✈ 03-May-2013 ✈ KCHS - KMTN

Flight Track Log - Related Links

Times and Time Zones

All times are in EDT time to prevent confusion due to time zone crossing. See the BJS542 flight status page for this flight to view local times or setup timezone preferences in your user account.

Time Position Orientation Groundspeed Altitude Reporting Facility
EDT Latitude Longitude Course Direction KTS MPH feet Rate Location/Type
02:23PM 33.0083 -80.0042 13° North 255 293 41,000  Level Jacksonville Center
02:24PM 33.0953 -79.9792 14° North 274 315 11,400 -12,900 Descending Jacksonville Center
02:25PM 33.1803 -79.9542 14° North 291 335 15,200 3,600 Climbing Jacksonville Center
02:26PM 33.2736 -79.9261 14° North 323 372 18,700 3,420 Climbing Jacksonville Center
02:27PM 33.5454 -79.8395 13° North  Level FlightAware Approximate
02:27PM 33.3731 -79.8981 13° North 338 389 22,100  Level Jacksonville Center
02:28PM 33.6566 -79.8077 13° North  Level FlightAware Approximate
02:28PM 33.4789 -79.8719 12° North 365 420 23,200  Level Jacksonville Center
02:29PM 33.5908 -79.8408 13° North 382 440 25,400 2,160 Climbing Jacksonville Center
02:30PM 33.7111 -79.8067 13° North 417 480 27,600 2,160 Climbing Jacksonville Center
02:31PM 33.8333 -79.7750 12° North 432 497 29,800 2,160 Climbing Jacksonville Center
02:32PM 33.9600 -79.7453 11° North 455 524 32,000 1,680 Climbing Jacksonville Center
02:33PM 34.0917 -79.7631 354° North 460 529 33,200 960 Climbing Jacksonville Center
02:34PM 34.2300 -79.7783 355° North 479 551 34,000 1,080 Climbing Jacksonville Center
02:35PM 34.3658 -79.7986 353° North 485 558 35,400 1,800 Climbing Jacksonville Center
02:37PM 34.6239 -79.7311 12° North 459 528 39,500 1,800 Climbing Washington Center
02:38PM 34.7372 -79.6483 31° Northeast 459 528 41,000 600 Climbing Washington Center
02:39PM 34.8461 -79.5728 30° Northeast 459 528 40,800 -960 Descending Washington Center
02:40PM 34.9675 -79.5053 24° Northeast 459 528 39,100 -1,560 Descending Washington Center
02:41PM 35.0906 -79.4400 23° Northeast 464 534 37,700 -1,500 Descending Washington Center
02:42PM 35.2178 -79.3775 22° Northeast 474 545 36,200 -1,620 Descending Washington Center
02:43PM 35.3450 -79.3147 22° Northeast 494 568 34,500 -1,920 Descending Washington Center
02:44PM 35.4642 -79.2361 28° Northeast 492 566 32,400 -1,800 Descending Washington Center
02:45PM 35.5756 -79.1392 35° Northeast 485 558 31,000 -1,380 Descending Washington Center
02:46PM 35.6744 -79.0464 37° Northeast 472 543 29,700 -1,020 Descending Washington Center
02:47PM 35.7792 -78.9536 36° Northeast 467 537 29,000 -360 Descending Washington Center
02:48PM 35.8819 -78.8581 37° Northeast 467 537 29,000  Level Washington Center
02:49PM 35.9847 -78.7622 37° Northeast 467 537 29,000  Level Washington Center
02:50PM 36.0894 -78.6636 37° Northeast 467 537 29,000  Level Washington Center
02:51PM 36.1964 -78.5672 36° Northeast 467 537 29,000  Level Washington Center
02:52PM 36.3031 -78.4683 37° Northeast 467 537 29,000  Level Washington Center
02:53PM 36.4033 -78.3767 36° Northeast 462 532 29,000  Level Washington Center
02:54PM 36.5056 -78.2819 37° Northeast 462 532 29,000 -480 Level Washington Center
02:55PM 36.6058 -78.1844 38° Northeast 457 526 28,100 -1,020 Descending Washington Center
02:56PM 36.6975 -78.0944 38° Northeast 463 533 27,000 -600 Descending Washington Center
02:57PM 36.7997 -77.9964 38° Northeast 463 533 27,000 -600 Level Washington Center
02:58PM 36.9117 -77.9247 27° Northeast 458 527 25,800 -1,500 Descending Washington Center
02:59PM 37.0253 -77.8683 22° Northeast 445 512 24,100 -1,440 Descending Washington Center
03:00PM 37.1328 -77.8114 23° Northeast 428 493 23,000 -600 Descending Washington Center
03:01PM 37.2381 -77.7572 22° Northeast 416 479 23,000  Level Washington Center
03:02PM 37.3433 -77.7000 23° Northeast 411 473 23,000  Level Washington Center
03:03PM 37.4486 -77.6428 23° Northeast 406 467 23,000  Level Washington Center
03:04PM 37.5517 -77.5906 22° Northeast 395 455 23,000  Level Washington Center
03:05PM 37.6528 -77.5328 24° Northeast 395 455 23,000  Level Washington Center
03:06PM 37.7558 -77.4803 22° Northeast 395 455 23,000  Level Washington Center
03:07PM 37.8569 -77.4250 23° Northeast 395 455 23,000  Level Washington Center
03:08PM 37.9578 -77.3694 23° Northeast 395 455 23,000 -660 Level Washington Center
03:09PM 38.0608 -77.3167 22° Northeast 395 455 21,700 -1,800 Descending Washington Center
03:10PM 38.1617 -77.2608 24° Northeast 400 460 19,500 -2,160 Descending Washington Center
03:11PM 38.2583 -77.2075 23° Northeast 389 448 17,500 -1,920 Descending Washington Center
03:12PM 38.3506 -77.1592 22° Northeast 372 428 15,700 -1,740 Descending Washington Center
03:13PM 38.4289 -77.0811 38° Northeast 358 412 14,000 -1,680 Descending Washington Center
03:14PM 38.4964 -77.0003 43° Northeast 340 391 12,400 -1,380 Descending Washington Center
03:15PM 38.5619 -76.9219 43° Northeast 329 379 11,300 -1,020 Descending Washington Center
03:16PM 38.6211 -76.8486 44° Northeast 307 353 10,400 -960 Descending Washington Center
03:17PM 38.6783 -76.7778 44° Northeast 293 337 9,500 -1,080 Descending Washington Center
03:19PM 38.7667 -76.5833 60° Northeast 261 300 6,900 -1,320 Descending Potomac TRACON
03:20PM 38.8167 -76.5167 46° Northeast 245 282 5,400 -1,500 Descending Potomac TRACON
03:21PM 38.8833 -76.4833 21° North 253 291 4,000 -720 Descending Potomac TRACON
03:22PM 38.9500 -76.4833 360° North 240 276 4,000  Level Potomac TRACON
03:23PM 39.0167 -76.4667 11° North 243 280 4,000 -60 Level Potomac TRACON
03:24PM 39.0833 -76.4500 11° North 255 293 3,900 -840 Descending Potomac TRACON
03:25PM 39.1500 -76.4500 360° North 262 302 2,400 -960 Descending Potomac TRACON
03:26PM 39.2167 -76.4500 360° North 218 251 2,000 -420 Descending Potomac TRACON
03:27PM 39.2833 -76.4500 360° North 206 237 1,600 -300 Descending Potomac TRACON
03:28PM 39.3167 -76.4833 322° Northwest 182 209 1,500 -60 Descending Potomac TRACON
03:29PM 39.3500 -76.5167 322° Northwest 186 214 1,500 -120 Level Potomac TRACON
03:30PM 39.3667 -76.4667 67° East 173 199 1,300 -600 Descending Potomac TRACON
03:31PM 39.3500 -76.4333 123° Southeast 128 147 400 -900 Descending Potomac TRACON
03:33PM 39.3257 -76.4138 110° East  Level Estimated
03:40PM 39.3257 -76.4138 110° East  Level Estimated
03:41PM 39.3257 -76.4138 110° East  Level Estimated
03:42PM 39.3257 -76.4138 110° East  Level Estimated
03:43PM 39.3257 -76.4138 110° East  Level Estimated
03:44PM 39.3257 -76.4138 110° East  Level Estimated
03:45PM 39.3257 -76.4138 110° East  Level Estimated
03:46PM 39.3257 -76.4138 110° East  Level Estimated
03:47PM 39.3257 -76.4138 110° East  Level Estimated